Time;durP1;ratioP1;P1;durP2;ratioP2;P2;SDS_P1;SDS_P2;PMS_P1;PMS_P2;Temp;Humidity;BMP_temperature;BMP_pressure;BME280_temperature;BME280_humidity;BME280_pressure;Samples;Min_cycle;Max_cycle;Signal;HPM_P1;HPM_P2
2021/10/21 00:07:22;;;;;;;1999.90;999.90;;;;;;;19.21;64.65;99358.31;15565559;28;20077;-60
2021/10/21 00:14:54;;;;;;;1999.90;999.90;;;;;;;19.15;64.81;99362.81;15600436;28;20045;-60
2021/10/21 00:22:28;;;;;;;1999.90;999.90;;;;;;;18.93;65.64;99332.00;15601476;28;20127;-61
2021/10/21 00:30:01;;;;;;;1999.90;999.90;;;;;;;18.92;65.53;99321.13;15591682;28;20092;-60
2021/10/21 00:37:34;;;;;;;1999.90;999.90;;;;;;;18.82;66.08;99308.75;15609232;28;20050;-61
2021/10/21 00:45:08;;;;;;;1999.90;999.90;;;;;;;18.99;65.51;99270.97;15556745;28;20042;-58
2021/10/21 00:52:42;;;;;;;1999.90;999.90;;;;;;;19.01;65.60;99273.38;15582082;28;20045;-60
2021/10/21 01:00:14;;;;;;;1999.90;999.90;;;;;;;18.98;65.70;99262.94;15598619;28;20048;-59
2021/10/21 01:07:49;;;;;;;1999.90;999.90;;;;;;;18.92;66.26;99239.19;15609167;28;20033;-59
2021/10/21 01:15:25;;;;;;;1999.90;999.90;;;;;;;18.74;67.03;99216.81;15584418;28;20296;-59
2021/10/21 01:22:59;;;;;;;1999.90;999.90;;;;;;;18.62;67.68;99177.81;15592257;28;20060;-61
2021/10/21 01:30:32;;;;;;;1999.90;999.90;;;;;;;18.77;67.19;99155.84;15601289;28;20048;-60
2021/10/21 01:38:05;;;;;;;1999.90;999.90;;;;;;;18.72;67.13;99129.66;15526149;28;20046;-61
2021/10/21 01:45:38;;;;;;;1999.90;999.90;;;;;;;18.77;66.68;99119.13;15582541;28;20804;-60
2021/10/21 01:53:12;;;;;;;1999.90;999.90;;;;;;;18.69;66.36;99065.53;15610527;28;20057;-59
2021/10/21 02:00:45;;;;;;;1999.90;999.90;;;;;;;18.81;65.54;99061.31;15583092;28;20331;-59
2021/10/21 02:08:19;;;;;;;1999.90;999.90;;;;;;;18.92;65.15;99044.19;15611796;28;20073;-61
2021/10/21 02:15:51;;;;;;;1999.90;999.90;;;;;;;19.00;64.50;99014.56;15580798;28;20037;-60
2021/10/21 02:23:25;;;;;;;1999.90;999.90;;;;;;;18.88;64.33;98993.38;15560981;28;20054;-61
2021/10/21 02:30:57;;;;;;;1999.90;999.90;;;;;;;18.84;64.20;98964.38;15583045;28;20049;-60
2021/10/21 02:38:31;;;;;;;1999.90;999.90;;;;;;;18.89;63.65;98946.94;15572220;28;20033;-60
2021/10/21 02:46:03;;;;;;;1999.90;999.90;;;;;;;18.87;63.92;98935.28;15611577;28;20045;-59
2021/10/21 02:53:37;;;;;;;1999.90;999.90;;;;;;;18.80;64.63;98914.84;15611762;28;20048;-58
2021/10/21 03:01:10;;;;;;;1999.90;999.90;;;;;;;18.68;65.44;98888.00;15611726;28;20514;-60
2021/10/21 03:08:44;;;;;;;1999.90;999.90;;;;;;;18.75;65.64;98870.91;15596102;28;20048;-60
2021/10/21 03:16:16;;;;;;;1999.90;999.90;;;;;;;18.67;66.14;98827.91;15616138;28;20552;-60
2021/10/21 03:23:50;;;;;;;1999.90;999.90;;;;;;;18.64;66.09;98840.03;15600269;28;20080;-59
2021/10/21 03:31:23;;;;;;;1999.90;999.90;;;;;;;18.67;65.64;98815.81;15587582;28;20050;-60
2021/10/21 03:38:58;;;;;;;1999.90;999.90;;;;;;;18.84;64.44;98792.03;15562537;28;20084;-60
2021/10/21 03:46:30;;;;;;;1999.90;999.90;;;;;;;18.79;62.83;98786.09;15586125;28;20044;-60
2021/10/21 03:54:04;;;;;;;1999.90;999.90;;;;;;;18.85;61.13;98778.69;15619973;28;20046;-59
2021/10/21 04:01:37;;;;;;;1999.90;999.90;;;;;;;18.78;59.39;98759.09;15595299;28;20049;-60
2021/10/21 04:09:11;;;;;;;1999.90;999.90;;;;;;;18.69;59.55;98759.66;15575723;28;20037;-59
2021/10/21 04:16:43;;;;;;;1999.90;999.90;;;;;;;17.98;64.68;98752.53;15598639;28;20042;-61
2021/10/21 04:24:17;;;;;;;1999.90;999.90;;;;;;;17.32;67.87;98751.19;15567558;28;20064;-59
2021/10/21 04:31:49;;;;;;;1999.90;999.90;;;;;;;16.76;69.76;98713.34;15594636;28;20048;-60
2021/10/21 04:39:23;;;;;;;1999.90;999.90;;;;;;;16.33;72.71;98623.81;15597456;28;20049;-60
2021/10/21 04:46:56;;;;;;;1999.90;999.90;;;;;;;16.29;72.89;98651.22;15598105;28;20088;-59
2021/10/21 04:54:29;;;;;;;1999.90;999.90;;;;;;;16.50;72.63;98596.66;15601035;28;20052;-60
2021/10/21 05:02:06;;;;;;;1999.90;999.90;;;;;;;16.47;72.29;98499.00;15618655;28;20041;-60
2021/10/21 05:09:40;;;;;;;1999.90;999.90;;;;;;;16.65;72.57;98507.94;15596360;28;20049;-60
2021/10/21 05:17:13;;;;;;;1999.90;999.90;;;;;;;16.77;70.99;98492.47;15578052;28;20521;-61
2021/10/21 05:24:47;;;;;;;1999.90;999.90;;;;;;;17.07;69.58;98511.25;15556915;28;20049;-61
2021/10/21 05:32:19;;;;;;;1999.90;999.90;;;;;;;17.37;68.13;98515.94;15630303;28;20524;-63
2021/10/21 05:39:54;;;;;;;1999.90;999.90;;;;;;;17.67;66.27;98537.50;15586359;28;20073;-61
2021/10/21 05:47:27;;;;;;;1999.90;999.90;;;;;;;17.88;65.65;98508.91;15590111;28;20122;-59
2021/10/21 05:55:01;;;;;;;1999.90;999.90;;;;;;;17.99;64.59;98548.97;15554292;28;20045;-61
2021/10/21 06:02:35;;;;;;;1999.90;999.90;;;;;;;17.89;64.15;98490.75;15555072;28;20046;-61
2021/10/21 06:10:09;;;;;;;1999.90;999.90;;;;;;;18.01;64.41;98475.94;15553637;28;20042;-61
2021/10/21 06:17:42;;;;;;;1999.90;999.90;;;;;;;17.97;63.79;98466.00;15553782;28;20034;-60
2021/10/21 06:25:17;;;;;;;1999.90;999.90;;;;;;;17.80;63.78;98465.16;15516725;28;20474;-59
2021/10/21 06:32:50;;;;;;;1999.90;999.90;;;;;;;17.93;61.43;98473.75;15495519;28;20141;-61
2021/10/21 06:40:26;;;;;;;1999.90;999.90;;;;;;;17.89;59.51;98518.94;15524747;28;20050;-61
2021/10/21 06:47:58;;;;;;;1999.90;999.90;;;;;;;18.05;59.56;98521.03;15529221;28;20046;-61
2021/10/21 06:55:32;;;;;;;1999.90;999.90;;;;;;;17.86;59.66;98512.16;15504173;28;20227;-57
2021/10/21 07:03:04;;;;;;;1999.90;999.90;;;;;;;17.75;58.59;98527.72;15504428;28;20054;-58
2021/10/21 07:10:38;;;;;;;1999.90;999.90;;;;;;;17.25;54.45;98528.66;15505252;28;20054;-58
2021/10/21 07:18:11;;;;;;;1999.90;999.90;;;;;;;17.31;52.70;98564.38;15553450;28;20042;-62
2021/10/21 07:25:45;;;;;;;1999.90;999.90;;;;;;;16.99;52.38;98550.06;15560519;28;20446;-58
2021/10/21 07:33:17;;;;;;;1999.90;999.90;;;;;;;18.00;50.21;98563.84;15561513;28;20104;-61
2021/10/21 07:40:52;;;;;;;1999.90;999.90;;;;;;;18.74;48.28;98548.09;15543551;28;20141;-60
2021/10/21 07:48:24;;;;;;;1999.90;999.90;;;;;;;18.77;47.30;98554.13;15559524;28;20046;-56
2021/10/21 07:55:58;;;;;;;1999.90;999.90;;;;;;;19.04;46.46;98557.44;15558100;28;20050;-56
2021/10/21 08:03:31;;;;;;;1999.90;999.90;;;;;;;19.26;46.00;98577.47;15558981;28;20056;-61
2021/10/21 08:11:05;;;;;;;1999.90;999.90;;;;;;;19.21;45.24;98556.22;15560476;28;20050;-61
2021/10/21 08:18:38;;;;;;;1999.90;999.90;;;;;;;18.88;46.47;98563.91;15558419;28;20073;-60
2021/10/21 08:26:12;;;;;;;1999.90;999.90;;;;;;;18.70;47.21;98546.59;15558013;28;20121;-61
2021/10/21 08:33:45;;;;;;;1999.90;999.90;;;;;;;18.20;48.26;98542.06;15559169;28;20049;-61
2021/10/21 08:41:21;;;;;;;1999.90;999.90;;;;;;;17.69;48.87;98544.34;15557908;28;20132;-61
2021/10/21 08:48:56;;;;;;;1999.90;999.90;;;;;;;17.59;49.67;98528.38;15557250;28;20042;-61
2021/10/21 08:56:30;;;;;;;1999.90;999.90;;;;;;;17.51;50.10;98519.31;15556730;28;20049;-59
2021/10/21 09:04:18;;;;;;;1999.90;999.90;;;;;;;17.59;50.06;98529.19;15540287;28;20046;-61
2021/10/21 09:12:02;;;;;;;1999.90;999.90;;;;;;;17.44;50.70;98533.53;15553509;28;20117;-58
2021/10/21 09:19:36;;;;;;;1999.90;999.90;;;;;;;17.30;50.84;98522.53;15558289;28;20096;-60
2021/10/21 09:27:12;;;;;;;1999.90;999.90;;;;;;;17.27;50.74;98526.97;15556091;28;20046;-62
2021/10/21 09:34:51;;;;;;;1999.90;999.90;;;;;;;17.13;51.25;98537.72;15551522;28;20432;-56
2021/10/21 09:42:28;;;;;;;1999.90;999.90;;;;;;;17.14;51.18;98548.56;15554946;28;20093;-61
2021/10/21 09:50:16;;;;;;;1999.90;999.90;;;;;;;17.49;51.23;98585.78;15557542;28;20073;-62
2021/10/21 09:57:50;;;;;;;1999.90;999.90;;;;;;;17.47;49.90;98574.16;15563019;28;20101;-61
2021/10/21 10:05:23;;;;;;;1999.90;999.90;;;;;;;18.02;49.10;98547.28;15563263;28;20415;-62
2021/10/21 10:12:57;;;;;;;1999.90;999.90;;;;;;;18.15;48.92;98587.75;15556750;28;20124;-61
2021/10/21 10:20:30;;;;;;;1999.90;999.90;;;;;;;18.23;49.17;98577.88;15544904;28;20038;-62
2021/10/21 10:28:05;;;;;;;1999.90;999.90;;;;;;;17.53;52.45;98640.09;15556939;28;20406;-61
2021/10/21 10:35:39;;;;;;;1999.90;999.90;;;;;;;17.05;55.24;98669.47;15555758;28;20053;-61
2021/10/21 10:43:15;;;;;;;1999.90;999.90;;;;;;;16.55;59.44;98697.50;15554729;28;20399;-62
2021/10/21 10:50:55;;;;;;;1999.90;999.90;;;;;;;15.56;64.40;98734.69;15554817;28;20038;-63
2021/10/21 10:58:30;;;;;;;1999.90;999.90;;;;;;;15.35;65.91;98807.94;15558214;28;20046;-62
2021/10/21 11:06:09;;;;;;;1999.90;999.90;;;;;;;14.68;65.08;98888.44;15554200;28;20581;-63
2021/10/21 11:13:43;;;;;;;1999.90;999.90;;;;;;;14.71;64.22;98932.56;15549901;28;20096;-63
2021/10/21 11:21:47;;;;;;;1999.90;999.90;;;;;;;14.50;65.11;98983.13;15557311;28;20046;-62
2021/10/21 11:29:21;;;;;;;1999.90;999.90;;;;;;;14.00;65.81;99032.72;15560145;28;20049;-62
2021/10/21 11:36:54;;;;;;;1999.90;999.90;;;;;;;14.32;64.90;99077.66;15562229;28;20042;-63
2021/10/21 11:44:28;;;;;;;1999.90;999.90;;;;;;;15.09;60.89;99094.97;15560890;28;20046;-63
2021/10/21 11:52:04;;;;;;;1999.90;999.90;;;;;;;14.56;60.43;99113.41;15561930;28;20052;-63
2021/10/21 11:59:41;;;;;;;1999.90;999.90;;;;;;;14.89;60.73;99159.16;15561590;28;20038;-62
2021/10/21 12:07:14;;;;;;;1999.90;999.90;;;;;;;15.06;59.65;99166.81;15556081;28;20423;-63
2021/10/21 12:14:48;;;;;;;;;;;;;;;15.02;59.48;99211.75;15561709;28;20503;-60
2021/10/21 12:22:28;;;;;;;1999.90;999.90;;;;;;;15.53;57.83;99226.63;15543529;28;19976;-63
2021/10/21 12:30:05;;;;;;;1999.90;999.90;;;;;;;15.53;58.10;99268.78;15548655;28;20073;-63
2021/10/21 12:37:42;;;;;;;1999.90;999.90;;;;;;;14.79;57.92;99291.91;15559427;28;20050;-63
2021/10/21 12:45:22;;;;;;;1999.90;999.90;;;;;;;15.61;56.03;99290.09;15557236;28;20065;-63
2021/10/21 12:52:56;;;;;;;1999.90;999.90;;;;;;;15.61;56.43;99300.53;15559088;28;20407;-63
2021/10/21 13:00:32;;;;;;;1999.90;999.90;;;;;;;15.12;58.01;99328.16;15558302;28;20081;-62
2021/10/21 13:08:07;;;;;;;1999.90;999.90;;;;;;;15.04;58.18;99348.97;15556800;28;20503;-62
2021/10/21 13:15:41;;;;;;;1999.90;999.90;;;;;;;15.17;57.99;99361.47;15558930;28;20045;-61
2021/10/21 13:23:13;;;;;;;1999.90;999.90;;;;;;;16.10;55.34;99370.84;15561695;28;20049;-62
2021/10/21 13:30:47;;;;;;;1999.90;999.90;;;;;;;15.65;53.70;99366.81;15557958;28;20050;-63
2021/10/21 13:38:21;;;;;;;1999.90;999.90;;;;;;;15.20;53.77;99391.56;15556353;28;20046;-63
2021/10/21 13:45:55;;;;;;;1999.90;999.90;;;;;;;15.72;52.98;99419.44;15553835;28;20049;-63
2021/10/21 13:53:27;;;;;;;1999.90;999.90;;;;;;;15.66;51.15;99432.28;15556125;28;20042;-62
2021/10/21 14:01:01;;;;;;;1999.90;999.90;;;;;;;15.36;51.26;99439.00;15555068;28;20403;-62
2021/10/21 14:08:34;;;;;;;1999.90;999.90;;;;;;;15.07;50.02;99443.69;15555058;28;20492;-63
2021/10/21 14:16:10;;;;;;;1999.90;999.90;;;;;;;15.26;50.22;99476.28;15554977;28;20053;-62
2021/10/21 14:23:43;;;;;;;1999.90;999.90;;;;;;;15.16;50.94;99491.91;15558418;28;20580;-63
2021/10/21 14:31:16;;;;;;;1999.90;999.90;;;;;;;14.16;57.58;99495.94;15629671;28;20057;-62
2021/10/21 14:38:49;;;;;;;1999.90;999.90;;;;;;;14.20;56.97;99505.22;15592632;28;20518;-59
2021/10/21 14:46:23;;;;;;;1999.90;999.90;;;;;;;13.85;57.19;99500.84;15595915;28;20510;-62
2021/10/21 14:53:56;;;;;;;1999.90;999.90;;;;;;;14.09;57.62;99513.53;15594745;28;20053;-62
2021/10/21 15:01:33;;;;;;;1999.90;999.90;;;;;;;14.27;56.68;99519.28;15565124;28;20042;-63
2021/10/21 15:09:27;;;;;;;1999.90;999.90;;;;;;;14.30;56.96;99509.31;15543567;28;20418;-63
2021/10/21 15:24:52;;;;;;;1999.90;999.90;;;;;;;14.42;57.93;99537.88;15561653;28;20053;-63
2021/10/21 15:32:28;;;;;;;1999.90;999.90;;;;;;;14.27;60.58;99526.91;15545555;28;20468;-63
2021/10/21 15:40:02;;;;;;;1999.90;999.90;;;;;;;13.90;59.12;99529.75;15551717;28;20475;-63
2021/10/21 15:47:38;;;;;;;1999.90;999.90;;;;;;;13.99;56.41;99527.44;15579729;22;20421;-62
2021/10/21 16:11:03;;;;;;;1999.90;999.90;;;;;;;14.18;53.31;99490.78;15587577;28;20037;-62
2021/10/21 16:18:37;;;;;;;;;;;;;;;14.41;53.08;99515.81;15595679;28;20592;-60
2021/10/21 16:26:31;;;;;;;1999.90;999.90;;;;;;;14.12;53.75;99523.97;15607717;28;19993;-61
2021/10/21 16:34:07;;;;;;;1999.90;999.90;;;;;;;14.06;56.67;99550.75;15614489;28;20213;-57
2021/10/21 16:41:41;;;;;;;1999.90;999.90;;;;;;;11.92;66.88;99658.56;15614251;28;20103;-60
2021/10/21 16:49:14;;;;;;;;;;;;;;;12.18;69.88;99651.47;15588682;28;20049;-61
2021/10/21 16:56:47;;;;;;;1999.90;999.90;;;;;;;12.03;68.95;99700.72;15604513;28;20041;-61
2021/10/21 17:04:21;;;;;;;1999.90;999.90;;;;;;;11.17;72.25;99675.63;15604463;28;20084;-59
2021/10/21 17:11:54;;;;;;;1999.90;999.90;;;;;;;11.42;73.74;99677.00;15612661;28;20045;-56
2021/10/21 17:19:28;;;;;;;1999.90;999.90;;;;;;;10.79;75.89;99695.78;15610762;28;20037;-61
2021/10/21 17:27:00;;;;;;;1999.90;999.90;;;;;;;10.90;75.98;99717.22;15610037;28;20053;-59
2021/10/21 17:34:35;;;;;;;1999.90;999.90;;;;;;;10.54;77.20;99721.06;15594507;28;20050;-59
2021/10/21 17:42:07;;;;;;;1999.90;999.90;;;;;;;10.55;76.80;99738.59;15610729;28;20080;-61
2021/10/21 17:49:41;;;;;;;1999.90;999.90;;;;;;;10.19;76.76;99759.03;15574633;28;20123;-59
2021/10/21 17:57:14;;;;;;;1999.90;999.90;;;;;;;10.17;76.89;99772.53;15608208;28;20042;-62
2021/10/21 18:04:48;;;;;;;1999.90;999.90;;;;;;;10.09;78.14;99779.84;15610842;28;20449;-59
2021/10/21 18:12:21;;;;;;;1999.90;999.90;;;;;;;9.96;78.11;99790.22;15566934;28;20437;-60
2021/10/21 18:19:55;;;;;;;1999.90;999.90;;;;;;;9.79;78.27;99793.25;15583625;28;20128;-57
2021/10/21 18:27:29;;;;;;;1999.90;999.90;;;;;;;9.80;77.89;99806.06;15608832;28;20096;-56
2021/10/21 18:35:04;;;;;;;1999.90;999.90;;;;;;;9.81;77.79;99829.97;15617345;28;20064;-58
2021/10/21 18:42:36;;;;;;;1999.90;999.90;;;;;;;9.76;77.72;99861.63;15589664;28;20123;-59
2021/10/21 18:50:11;;;;;;;1999.90;999.90;;;;;;;10.02;76.69;99877.19;15593175;28;20061;-59
2021/10/21 18:57:43;;;;;;;1999.90;999.90;;;;;;;9.98;76.29;99874.28;15595069;28;20078;-57
2021/10/21 19:05:17;;;;;;;1999.90;999.90;;;;;;;10.08;76.27;99892.50;15621372;28;20244;-59
2021/10/21 19:12:50;;;;;;;1999.90;999.90;;;;;;;10.08;74.94;99898.09;15621113;28;20479;-59
2021/10/21 19:20:25;;;;;;;1999.90;999.90;;;;;;;10.06;74.92;99903.19;15618922;28;20435;-61
2021/10/21 19:27:57;;;;;;;1999.90;999.90;;;;;;;10.19;74.08;99924.31;15605183;28;20050;-61
2021/10/21 19:35:31;;;;;;;1999.90;999.90;;;;;;;10.10;73.64;99920.84;15611191;28;20099;-59
2021/10/21 19:43:05;;;;;;;1999.90;999.90;;;;;;;10.03;72.83;99940.94;15618953;28;20073;-58
2021/10/21 19:50:39;;;;;;;1999.90;999.90;;;;;;;9.86;72.91;99957.06;15618342;28;20120;-58
2021/10/21 19:58:12;;;;;;;1999.90;999.90;;;;;;;9.64;72.40;99981.41;15616448;28;20478;-53
2021/10/21 20:05:46;;;;;;;1999.90;999.90;;;;;;;9.61;72.06;99982.09;15616807;28;20056;-59
2021/10/21 20:13:22;;;;;;;1999.90;999.90;;;;;;;9.81;72.05;100008.28;15615084;28;20144;-59
2021/10/21 20:20:57;;;;;;;1999.90;999.90;;;;;;;9.55;72.86;100028.84;15606914;28;20639;-58
2021/10/21 20:28:40;;;;;;;1999.90;999.90;;;;;;;9.47;72.62;100054.81;15598845;28;20045;-64
2021/10/21 20:36:18;;;;;;;1999.90;999.90;;;;;;;9.44;72.65;100057.47;15606788;28;20042;-62
2021/10/21 20:43:51;;;;;;;1999.90;999.90;;;;;;;9.42;71.94;100068.13;15592531;28;20056;-63
2021/10/21 20:51:25;;;;;;;1999.90;999.90;;;;;;;9.49;71.74;100096.25;15574206;28;20049;-64
2021/10/21 20:58:57;;;;;;;1999.90;999.90;;;;;;;9.17;71.40;100090.28;15597635;28;20122;-60
2021/10/21 21:06:31;;;;;;;1999.90;999.90;;;;;;;9.23;70.00;100116.75;15613870;28;20112;-61
2021/10/21 21:14:04;;;;;;;1999.90;999.90;;;;;;;9.57;68.94;100130.75;15612374;28;20052;-60
2021/10/21 21:21:38;;;;;;;1999.90;999.90;;;;;;;9.29;68.73;100134.09;15612250;28;20473;-60
2021/10/21 21:29:10;;;;;;;1999.90;999.90;;;;;;;9.29;68.35;100152.75;15611844;28;20057;-61
2021/10/21 21:36:44;;;;;;;1999.90;999.90;;;;;;;9.30;68.22;100168.31;15611459;28;20517;-58
2021/10/21 21:44:17;;;;;;;1999.90;999.90;;;;;;;9.28;68.06;100187.31;15609359;28;20049;-59
2021/10/21 21:51:51;;;;;;;1999.90;999.90;;;;;;;9.24;68.48;100190.75;15581279;23;20054;-59
2021/10/21 21:59:24;;;;;;;1999.90;999.90;;;;;;;9.48;68.21;100204.06;15555209;28;20050;-60
2021/10/21 22:06:58;;;;;;;1999.90;999.90;;;;;;;9.49;67.88;100216.00;15552566;28;20499;-59
2021/10/21 22:14:31;;;;;;;1999.90;999.90;;;;;;;9.34;68.03;100233.28;15553508;28;20108;-61
2021/10/21 22:22:05;;;;;;;1999.90;999.90;;;;;;;9.41;66.94;100247.50;15543054;28;20050;-61
2021/10/21 22:29:38;;;;;;;1999.90;999.90;;;;;;;9.45;67.32;100259.59;15544814;28;20308;-61
2021/10/21 22:37:12;;;;;;;1999.90;999.90;;;;;;;9.39;68.07;100280.44;15554069;28;20499;-60
2021/10/21 22:44:45;;;;;;;1999.90;999.90;;;;;;;9.10;69.00;100281.22;15551623;28;20050;-57
2021/10/21 22:52:18;;;;;;;1999.90;999.90;;;;;;;9.14;68.71;100290.53;15550625;28;20056;-61
2021/10/21 22:59:53;;;;;;;1999.90;999.90;;;;;;;8.96;69.28;100300.91;15553482;28;20052;-59
2021/10/21 23:07:28;;;;;;;1999.90;999.90;;;;;;;9.30;68.28;100301.94;15550779;28;20042;-61
2021/10/21 23:15:00;;;;;;;1999.90;999.90;;;;;;;9.04;68.82;100313.97;15548542;28;20042;-60
2021/10/21 23:22:34;;;;;;;1999.90;999.90;;;;;;;9.09;68.73;100319.38;15536163;28;20042;-61
2021/10/21 23:30:07;;;;;;;1999.90;999.90;;;;;;;8.95;68.58;100322.34;15536857;28;20137;-61
2021/10/21 23:37:58;;;;;;;1999.90;999.90;;;;;;;8.98;68.59;100332.03;15558099;28;20325;-61
2021/10/21 23:45:49;;;;;;;1999.90;999.90;;;;;;;9.01;68.15;100344.44;15562051;28;20049;-61
2021/10/21 23:53:41;;;;;;;1999.90;999.90;;;;;;;9.03;67.76;100339.38;15521800;28;20061;-60
